sensor_id;sensor_type;location;lat;lon;timestamp;P1;durP1;ratioP1;P2;durP2;ratioP2
18411;SDS011;27097;51.738;19.472;2023-02-15T00:01:28;17.67;;;11.60;;
18411;SDS011;27097;51.738;19.472;2023-02-15T00:03:57;18.73;;;11.30;;
18411;SDS011;27097;51.738;19.472;2023-02-15T00:06:24;17.90;;;11.77;;
18411;SDS011;27097;51.738;19.472;2023-02-15T00:08:51;18.67;;;10.95;;
18411;SDS011;27097;51.738;19.472;2023-02-15T00:11:19;17.90;;;11.88;;
18411;SDS011;27097;51.738;19.472;2023-02-15T00:14:04;18.67;;;11.60;;
18411;SDS011;27097;51.738;19.472;2023-02-15T00:16:32;17.95;;;11.52;;
18411;SDS011;27097;51.738;19.472;2023-02-15T00:19:01;19.73;;;12.00;;
18411;SDS011;27097;51.738;19.472;2023-02-15T00:21:28;19.67;;;11.60;;
18411;SDS011;27097;51.738;19.472;2023-02-15T00:23:55;18.25;;;12.07;;
18411;SDS011;27097;51.738;19.472;2023-02-15T00:26:23;19.83;;;11.80;;
18411;SDS011;27097;51.738;19.472;2023-02-15T00:28:50;18.73;;;12.27;;
18411;SDS011;27097;51.738;19.472;2023-02-15T00:31:17;20.40;;;12.10;;
18411;SDS011;27097;51.738;19.472;2023-02-15T00:33:44;19.00;;;11.90;;
18411;SDS011;27097;51.738;19.472;2023-02-15T00:36:12;21.27;;;12.13;;
18411;SDS011;27097;51.738;19.472;2023-02-15T00:38:39;18.73;;;11.93;;
18411;SDS011;27097;51.738;19.472;2023-02-15T00:41:07;18.00;;;12.00;;
18411;SDS011;27097;51.738;19.472;2023-02-15T00:43:35;19.40;;;12.15;;
18411;SDS011;27097;51.738;19.472;2023-02-15T00:46:03;23.45;;;12.57;;
18411;SDS011;27097;51.738;19.472;2023-02-15T00:48:31;22.38;;;12.35;;
18411;SDS011;27097;51.738;19.472;2023-02-15T00:50:58;20.73;;;12.13;;
18411;SDS011;27097;51.738;19.472;2023-02-15T00:53:27;22.15;;;12.73;;
18411;SDS011;27097;51.738;19.472;2023-02-15T00:55:55;17.77;;;11.45;;
18411;SDS011;27097;51.738;19.472;2023-02-15T00:58:22;20.40;;;12.18;;
18411;SDS011;27097;51.738;19.472;2023-02-15T01:00:49;21.05;;;12.50;;
18411;SDS011;27097;51.738;19.472;2023-02-15T01:03:17;24.42;;;12.63;;
18411;SDS011;27097;51.738;19.472;2023-02-15T01:05:46;26.92;;;14.10;;
18411;SDS011;27097;51.738;19.472;2023-02-15T01:08:14;25.27;;;14.65;;
18411;SDS011;27097;51.738;19.472;2023-02-15T01:10:42;21.85;;;12.65;;
18411;SDS011;27097;51.738;19.472;2023-02-15T01:13:12;25.73;;;11.98;;
18411;SDS011;27097;51.738;19.472;2023-02-15T01:15:39;19.73;;;11.60;;
18411;SDS011;27097;51.738;19.472;2023-02-15T01:18:06;18.65;;;12.05;;
18411;SDS011;27097;51.738;19.472;2023-02-15T01:20:34;19.50;;;12.25;;
18411;SDS011;27097;51.738;19.472;2023-02-15T01:23:04;20.40;;;12.15;;
18411;SDS011;27097;51.738;19.472;2023-02-15T01:25:32;18.55;;;11.88;;
18411;SDS011;27097;51.738;19.472;2023-02-15T01:28:01;20.20;;;12.13;;
18411;SDS011;27097;51.738;19.472;2023-02-15T01:30:29;20.90;;;11.73;;
18411;SDS011;27097;51.738;19.472;2023-02-15T01:32:56;20.35;;;11.80;;
18411;SDS011;27097;51.738;19.472;2023-02-15T01:35:23;16.92;;;11.45;;
18411;SDS011;27097;51.738;19.472;2023-02-15T01:37:50;19.23;;;11.32;;
18411;SDS011;27097;51.738;19.472;2023-02-15T01:40:17;16.63;;;11.18;;
18411;SDS011;27097;51.738;19.472;2023-02-15T01:42:44;18.45;;;11.63;;
18411;SDS011;27097;51.738;19.472;2023-02-15T01:45:19;19.45;;;10.65;;
18411;SDS011;27097;51.738;19.472;2023-02-15T01:47:49;17.83;;;10.90;;
18411;SDS011;27097;51.738;19.472;2023-02-15T01:50:26;17.48;;;11.00;;
18411;SDS011;27097;51.738;19.472;2023-02-15T01:52:58;17.58;;;10.80;;
18411;SDS011;27097;51.738;19.472;2023-02-15T01:55:29;17.80;;;10.48;;
18411;SDS011;27097;51.738;19.472;2023-02-15T01:58:02;20.98;;;11.45;;
18411;SDS011;27097;51.738;19.472;2023-02-15T02:00:31;17.83;;;10.45;;
18411;SDS011;27097;51.738;19.472;2023-02-15T02:02:58;21.77;;;11.20;;
18411;SDS011;27097;51.738;19.472;2023-02-15T02:05:27;15.32;;;9.95;;
18411;SDS011;27097;51.738;19.472;2023-02-15T02:07:56;19.15;;;10.70;;
18411;SDS011;27097;51.738;19.472;2023-02-15T02:10:26;19.02;;;11.05;;
18411;SDS011;27097;51.738;19.472;2023-02-15T02:12:58;17.85;;;10.55;;
18411;SDS011;27097;51.738;19.472;2023-02-15T02:15:29;20.10;;;10.70;;
18411;SDS011;27097;51.738;19.472;2023-02-15T02:18:09;17.38;;;10.00;;
18411;SDS011;27097;51.738;19.472;2023-02-15T02:23:51;16.48;;;10.07;;
18411;SDS011;27097;51.738;19.472;2023-02-15T02:26:49;18.02;;;10.23;;
18411;SDS011;27097;51.738;19.472;2023-02-15T02:29:38;18.52;;;10.45;;
18411;SDS011;27097;51.738;19.472;2023-02-15T02:32:42;16.88;;;10.00;;
18411;SDS011;27097;51.738;19.472;2023-02-15T02:35:17;16.42;;;9.65;;
18411;SDS011;27097;51.738;19.472;2023-02-15T02:37:51;15.60;;;9.70;;
18411;SDS011;27097;51.738;19.472;2023-02-15T02:40:29;16.67;;;10.63;;
18411;SDS011;27097;51.738;19.472;2023-02-15T02:43:00;19.02;;;9.27;;
18411;SDS011;27097;51.738;19.472;2023-02-15T02:45:35;18.42;;;10.45;;
18411;SDS011;27097;51.738;19.472;2023-02-15T02:48:12;15.20;;;9.93;;
18411;SDS011;27097;51.738;19.472;2023-02-15T02:50:42;17.17;;;9.32;;
18411;SDS011;27097;51.738;19.472;2023-02-15T02:53:09;14.57;;;9.75;;
18411;SDS011;27097;51.738;19.472;2023-02-15T02:55:38;14.57;;;9.52;;
18411;SDS011;27097;51.738;19.472;2023-02-15T02:58:09;16.02;;;9.73;;
18411;SDS011;27097;51.738;19.472;2023-02-15T03:00:43;16.20;;;9.48;;
18411;SDS011;27097;51.738;19.472;2023-02-15T03:03:14;16.95;;;9.80;;
18411;SDS011;27097;51.738;19.472;2023-02-15T03:05:47;13.52;;;8.73;;
18411;SDS011;27097;51.738;19.472;2023-02-15T03:08:16;16.52;;;9.65;;
18411;SDS011;27097;51.738;19.472;2023-02-15T03:10:47;14.38;;;8.95;;
18411;SDS011;27097;51.738;19.472;2023-02-15T03:13:17;16.30;;;9.18;;
18411;SDS011;27097;51.738;19.472;2023-02-15T03:15:44;16.35;;;9.10;;
18411;SDS011;27097;51.738;19.472;2023-02-15T03:18:32;16.58;;;9.00;;
18411;SDS011;27097;51.738;19.472;2023-02-15T03:21:02;16.38;;;9.30;;
18411;SDS011;27097;51.738;19.472;2023-02-15T03:23:31;15.77;;;9.50;;
18411;SDS011;27097;51.738;19.472;2023-02-15T03:26:00;13.93;;;8.93;;
18411;SDS011;27097;51.738;19.472;2023-02-15T03:28:30;15.75;;;9.00;;
18411;SDS011;27097;51.738;19.472;2023-02-15T03:31:02;15.30;;;8.73;;
18411;SDS011;27097;51.738;19.472;2023-02-15T03:33:33;15.48;;;8.45;;
18411;SDS011;27097;51.738;19.472;2023-02-15T03:36:08;12.55;;;8.40;;
18411;SDS011;27097;51.738;19.472;2023-02-15T03:38:45;15.13;;;8.50;;
18411;SDS011;27097;51.738;19.472;2023-02-15T03:41:17;12.80;;;8.15;;
18411;SDS011;27097;51.738;19.472;2023-02-15T03:43:48;16.67;;;8.75;;
18411;SDS011;27097;51.738;19.472;2023-02-15T03:46:20;13.95;;;8.38;;
18411;SDS011;27097;51.738;19.472;2023-02-15T03:48:53;17.10;;;8.57;;
18411;SDS011;27097;51.738;19.472;2023-02-15T03:51:23;13.40;;;8.65;;
18411;SDS011;27097;51.738;19.472;2023-02-15T03:54:00;11.73;;;8.23;;
18411;SDS011;27097;51.738;19.472;2023-02-15T03:56:30;15.18;;;8.45;;
18411;SDS011;27097;51.738;19.472;2023-02-15T03:58:59;16.42;;;8.68;;
18411;SDS011;27097;51.738;19.472;2023-02-15T04:01:45;11.07;;;7.97;;
18411;SDS011;27097;51.738;19.472;2023-02-15T04:04:28;14.27;;;8.35;;
18411;SDS011;27097;51.738;19.472;2023-02-15T04:07:00;12.90;;;7.95;;
18411;SDS011;27097;51.738;19.472;2023-02-15T04:09:27;13.00;;;7.93;;
18411;SDS011;27097;51.738;19.472;2023-02-15T04:12:13;13.52;;;8.07;;
18411;SDS011;27097;51.738;19.472;2023-02-15T04:14:40;16.40;;;7.93;;
18411;SDS011;27097;51.738;19.472;2023-02-15T04:17:25;11.45;;;7.65;;
18411;SDS011;27097;51.738;19.472;2023-02-15T04:19:53;12.63;;;8.05;;
18411;SDS011;27097;51.738;19.472;2023-02-15T04:22:37;15.07;;;8.32;;
18411;SDS011;27097;51.738;19.472;2023-02-15T04:25:21;13.63;;;8.13;;
18411;SDS011;27097;51.738;19.472;2023-02-15T04:27:49;16.92;;;8.00;;
18411;SDS011;27097;51.738;19.472;2023-02-15T04:30:19;14.02;;;7.75;;
18411;SDS011;27097;51.738;19.472;2023-02-15T04:32:49;11.80;;;7.90;;
18411;SDS011;27097;51.738;19.472;2023-02-15T04:35:18;12.77;;;7.78;;
18411;SDS011;27097;51.738;19.472;2023-02-15T04:37:45;12.25;;;7.97;;
18411;SDS011;27097;51.738;19.472;2023-02-15T04:40:13;11.90;;;7.50;;
18411;SDS011;27097;51.738;19.472;2023-02-15T04:42:40;12.07;;;7.63;;
18411;SDS011;27097;51.738;19.472;2023-02-15T04:45:07;13.93;;;7.72;;
18411;SDS011;27097;51.738;19.472;2023-02-15T04:47:35;11.82;;;7.68;;
18411;SDS011;27097;51.738;19.472;2023-02-15T04:50:02;12.88;;;7.00;;
18411;SDS011;27097;51.738;19.472;2023-02-15T04:52:30;12.15;;;7.28;;
18411;SDS011;27097;51.738;19.472;2023-02-15T04:54:57;11.18;;;7.38;;
18411;SDS011;27097;51.738;19.472;2023-02-15T04:57:24;11.48;;;7.53;;
18411;SDS011;27097;51.738;19.472;2023-02-15T04:59:51;12.10;;;8.07;;
18411;SDS011;27097;51.738;19.472;2023-02-15T05:02:17;11.85;;;7.85;;
18411;SDS011;27097;51.738;19.472;2023-02-15T05:04:44;11.95;;;7.22;;
18411;SDS011;27097;51.738;19.472;2023-02-15T05:07:11;12.63;;;7.20;;
18411;SDS011;27097;51.738;19.472;2023-02-15T05:09:41;11.88;;;7.78;;
18411;SDS011;27097;51.738;19.472;2023-02-15T05:12:08;10.70;;;7.35;;
18411;SDS011;27097;51.738;19.472;2023-02-15T05:14:34;12.50;;;7.32;;
18411;SDS011;27097;51.738;19.472;2023-02-15T05:17:01;11.20;;;7.03;;
18411;SDS011;27097;51.738;19.472;2023-02-15T05:19:30;10.93;;;7.53;;
18411;SDS011;27097;51.738;19.472;2023-02-15T05:21:57;9.77;;;7.07;;
18411;SDS011;27097;51.738;19.472;2023-02-15T05:24:24;11.65;;;6.75;;
18411;SDS011;27097;51.738;19.472;2023-02-15T05:27:11;15.15;;;7.22;;
18411;SDS011;27097;51.738;19.472;2023-02-15T05:29:56;12.43;;;6.97;;
18411;SDS011;27097;51.738;19.472;2023-02-15T05:32:23;11.13;;;7.00;;
18411;SDS011;27097;51.738;19.472;2023-02-15T05:34:50;13.27;;;7.20;;
18411;SDS011;27097;51.738;19.472;2023-02-15T05:37:17;13.70;;;7.28;;
18411;SDS011;27097;51.738;19.472;2023-02-15T05:39:43;11.07;;;7.70;;
18411;SDS011;27097;51.738;19.472;2023-02-15T05:42:12;10.40;;;6.85;;
18411;SDS011;27097;51.738;19.472;2023-02-15T05:44:39;10.98;;;6.70;;
18411;SDS011;27097;51.738;19.472;2023-02-15T05:47:06;10.98;;;7.78;;
18411;SDS011;27097;51.738;19.472;2023-02-15T05:49:33;12.68;;;8.02;;
18411;SDS011;27097;51.738;19.472;2023-02-15T05:52:00;12.52;;;8.20;;
18411;SDS011;27097;51.738;19.472;2023-02-15T05:54:27;11.52;;;8.18;;
18411;SDS011;27097;51.738;19.472;2023-02-15T05:56:54;11.85;;;8.40;;
18411;SDS011;27097;51.738;19.472;2023-02-15T05:59:23;11.88;;;8.02;;
18411;SDS011;27097;51.738;19.472;2023-02-15T06:01:50;10.15;;;7.85;;
18411;SDS011;27097;51.738;19.472;2023-02-15T06:04:17;11.68;;;7.97;;
18411;SDS011;27097;51.738;19.472;2023-02-15T06:06:44;16.40;;;8.82;;
18411;SDS011;27097;51.738;19.472;2023-02-15T06:09:11;14.88;;;8.10;;
18411;SDS011;27097;51.738;19.472;2023-02-15T06:11:39;12.05;;;8.38;;
18411;SDS011;27097;51.738;19.472;2023-02-15T06:14:06;12.32;;;8.68;;
18411;SDS011;27097;51.738;19.472;2023-02-15T06:16:34;13.93;;;8.90;;
18411;SDS011;27097;51.738;19.472;2023-02-15T06:19:01;12.63;;;9.00;;
18411;SDS011;27097;51.738;19.472;2023-02-15T06:21:28;12.43;;;8.90;;
18411;SDS011;27097;51.738;19.472;2023-02-15T06:23:55;13.40;;;9.48;;
18411;SDS011;27097;51.738;19.472;2023-02-15T06:26:22;12.18;;;8.93;;
18411;SDS011;27097;51.738;19.472;2023-02-15T06:28:49;12.02;;;9.48;;
18411;SDS011;27097;51.738;19.472;2023-02-15T06:31:16;13.85;;;9.88;;
18411;SDS011;27097;51.738;19.472;2023-02-15T06:33:44;16.25;;;9.27;;
18411;SDS011;27097;51.738;19.472;2023-02-15T06:36:11;15.68;;;9.40;;
18411;SDS011;27097;51.738;19.472;2023-02-15T06:38:38;13.63;;;9.88;;
18411;SDS011;27097;51.738;19.472;2023-02-15T06:41:05;14.15;;;9.65;;
18411;SDS011;27097;51.738;19.472;2023-02-15T06:43:32;13.73;;;9.93;;
18411;SDS011;27097;51.738;19.472;2023-02-15T06:45:59;19.23;;;10.13;;
18411;SDS011;27097;51.738;19.472;2023-02-15T06:48:26;15.10;;;8.90;;
18411;SDS011;27097;51.738;19.472;2023-02-15T06:50:54;15.18;;;9.45;;
18411;SDS011;27097;51.738;19.472;2023-02-15T06:53:21;20.25;;;9.27;;
18411;SDS011;27097;51.738;19.472;2023-02-15T06:55:48;19.50;;;10.27;;
18411;SDS011;27097;51.738;19.472;2023-02-15T06:58:15;15.35;;;10.00;;
18411;SDS011;27097;51.738;19.472;2023-02-15T07:00:42;22.05;;;10.48;;
18411;SDS011;27097;51.738;19.472;2023-02-15T07:03:09;21.52;;;9.80;;
18411;SDS011;27097;51.738;19.472;2023-02-15T07:05:40;19.38;;;10.18;;
18411;SDS011;27097;51.738;19.472;2023-02-15T07:08:10;19.58;;;10.45;;
18411;SDS011;27097;51.738;19.472;2023-02-15T07:10:36;21.90;;;9.55;;
18411;SDS011;27097;51.738;19.472;2023-02-15T07:13:03;18.70;;;9.90;;
18411;SDS011;27097;51.738;19.472;2023-02-15T07:15:29;17.77;;;9.90;;
18411;SDS011;27097;51.738;19.472;2023-02-15T07:17:56;25.95;;;11.05;;
18411;SDS011;27097;51.738;19.472;2023-02-15T07:20:24;19.13;;;9.75;;
18411;SDS011;27097;51.738;19.472;2023-02-15T07:22:51;19.20;;;9.63;;
18411;SDS011;27097;51.738;19.472;2023-02-15T07:25:19;22.08;;;9.85;;
18411;SDS011;27097;51.738;19.472;2023-02-15T07:27:46;20.63;;;9.55;;
18411;SDS011;27097;51.738;19.472;2023-02-15T07:30:14;20.45;;;9.43;;
18411;SDS011;27097;51.738;19.472;2023-02-15T07:32:42;17.92;;;10.00;;
18411;SDS011;27097;51.738;19.472;2023-02-15T07:35:22;19.90;;;9.88;;
18411;SDS011;27097;51.738;19.472;2023-02-15T07:37:49;18.85;;;9.25;;
18411;SDS011;27097;51.738;19.472;2023-02-15T07:40:19;16.92;;;9.63;;
18411;SDS011;27097;51.738;19.472;2023-02-15T07:42:48;22.40;;;10.30;;
18411;SDS011;27097;51.738;19.472;2023-02-15T07:45:17;16.73;;;9.77;;
18411;SDS011;27097;51.738;19.472;2023-02-15T07:47:44;17.92;;;10.68;;
18411;SDS011;27097;51.738;19.472;2023-02-15T07:50:11;19.77;;;9.60;;
18411;SDS011;27097;51.738;19.472;2023-02-15T07:52:37;21.80;;;10.07;;
18411;SDS011;27097;51.738;19.472;2023-02-15T07:55:05;14.90;;;10.32;;
18411;SDS011;27097;51.738;19.472;2023-02-15T07:57:35;21.58;;;10.65;;
18411;SDS011;27097;51.738;19.472;2023-02-15T08:00:02;17.70;;;10.13;;
18411;SDS011;27097;51.738;19.472;2023-02-15T08:02:29;19.10;;;10.43;;
18411;SDS011;27097;51.738;19.472;2023-02-15T08:04:56;21.38;;;10.93;;
18411;SDS011;27097;51.738;19.472;2023-02-15T08:07:23;15.90;;;10.13;;
18411;SDS011;27097;51.738;19.472;2023-02-15T08:09:49;18.75;;;10.80;;
18411;SDS011;27097;51.738;19.472;2023-02-15T08:12:16;22.08;;;11.20;;
18411;SDS011;27097;51.738;19.472;2023-02-15T08:14:44;18.88;;;11.20;;
18411;SDS011;27097;51.738;19.472;2023-02-15T08:17:11;17.13;;;11.15;;
18411;SDS011;27097;51.738;19.472;2023-02-15T08:19:38;22.27;;;11.68;;
18411;SDS011;27097;51.738;19.472;2023-02-15T08:22:05;20.85;;;11.60;;
18411;SDS011;27097;51.738;19.472;2023-02-15T08:24:35;18.30;;;10.68;;
18411;SDS011;27097;51.738;19.472;2023-02-15T08:27:03;26.08;;;11.18;;
18411;SDS011;27097;51.738;19.472;2023-02-15T08:29:31;18.00;;;10.93;;
18411;SDS011;27097;51.738;19.472;2023-02-15T08:32:00;21.92;;;11.70;;
18411;SDS011;27097;51.738;19.472;2023-02-15T08:34:29;24.15;;;11.10;;
18411;SDS011;27097;51.738;19.472;2023-02-15T08:36:58;22.48;;;12.35;;
18411;SDS011;27097;51.738;19.472;2023-02-15T08:39:25;22.30;;;12.30;;
18411;SDS011;27097;51.738;19.472;2023-02-15T08:41:53;19.42;;;11.43;;
18411;SDS011;27097;51.738;19.472;2023-02-15T08:44:20;21.40;;;11.10;;
18411;SDS011;27097;51.738;19.472;2023-02-15T08:46:48;27.77;;;11.48;;
18411;SDS011;27097;51.738;19.472;2023-02-15T08:49:17;19.88;;;12.13;;
18411;SDS011;27097;51.738;19.472;2023-02-15T08:51:47;21.63;;;12.23;;
18411;SDS011;27097;51.738;19.472;2023-02-15T08:54:15;22.10;;;11.70;;
18411;SDS011;27097;51.738;19.472;2023-02-15T08:56:43;23.88;;;12.95;;
18411;SDS011;27097;51.738;19.472;2023-02-15T08:59:12;20.10;;;12.25;;
18411;SDS011;27097;51.738;19.472;2023-02-15T09:01:41;22.92;;;13.05;;
18411;SDS011;27097;51.738;19.472;2023-02-15T09:04:08;23.20;;;12.70;;
18411;SDS011;27097;51.738;19.472;2023-02-15T09:06:37;24.55;;;13.10;;
18411;SDS011;27097;51.738;19.472;2023-02-15T09:09:05;25.85;;;14.48;;
18411;SDS011;27097;51.738;19.472;2023-02-15T09:11:35;26.10;;;13.48;;
18411;SDS011;27097;51.738;19.472;2023-02-15T09:14:04;26.45;;;12.93;;
18411;SDS011;27097;51.738;19.472;2023-02-15T09:16:34;27.55;;;13.25;;
18411;SDS011;27097;51.738;19.472;2023-02-15T09:19:02;31.17;;;14.00;;
18411;SDS011;27097;51.738;19.472;2023-02-15T09:21:30;23.42;;;14.13;;
18411;SDS011;27097;51.738;19.472;2023-02-15T09:24:00;28.50;;;13.43;;
18411;SDS011;27097;51.738;19.472;2023-02-15T09:26:28;33.67;;;16.17;;
18411;SDS011;27097;51.738;19.472;2023-02-15T09:28:58;34.38;;;15.35;;
18411;SDS011;27097;51.738;19.472;2023-02-15T09:31:27;34.45;;;16.20;;
18411;SDS011;27097;51.738;19.472;2023-02-15T09:33:55;37.80;;;16.33;;
18411;SDS011;27097;51.738;19.472;2023-02-15T09:36:26;50.08;;;16.50;;
18411;SDS011;27097;51.738;19.472;2023-02-15T09:38:54;39.03;;;15.35;;
18411;SDS011;27097;51.738;19.472;2023-02-15T09:41:36;36.55;;;14.68;;
18411;SDS011;27097;51.738;19.472;2023-02-15T09:44:37;28.13;;;15.15;;
18411;SDS011;27097;51.738;19.472;2023-02-15T09:47:21;33.35;;;14.80;;
18411;SDS011;27097;51.738;19.472;2023-02-15T09:49:59;30.05;;;14.75;;
18411;SDS011;27097;51.738;19.472;2023-02-15T09:52:40;27.83;;;14.88;;
18411;SDS011;27097;51.738;19.472;2023-02-15T09:55:21;32.30;;;15.45;;
18411;SDS011;27097;51.738;19.472;2023-02-15T09:58:11;25.67;;;14.05;;
18411;SDS011;27097;51.738;19.472;2023-02-15T10:00:47;35.55;;;15.40;;
18411;SDS011;27097;51.738;19.472;2023-02-15T10:03:23;29.05;;;14.25;;
18411;SDS011;27097;51.738;19.472;2023-02-15T10:06:14;34.50;;;15.07;;
18411;SDS011;27097;51.738;19.472;2023-02-15T10:08:59;28.48;;;14.60;;
18411;SDS011;27097;51.738;19.472;2023-02-15T10:11:36;34.00;;;14.88;;
18411;SDS011;27097;51.738;19.472;2023-02-15T10:14:30;26.67;;;15.30;;
18411;SDS011;27097;51.738;19.472;2023-02-15T10:17:10;25.15;;;14.73;;
18411;SDS011;27097;51.738;19.472;2023-02-15T10:19:53;26.90;;;15.35;;
18411;SDS011;27097;51.738;19.472;2023-02-15T10:22:30;28.20;;;14.80;;
18411;SDS011;27097;51.738;19.472;2023-02-15T10:25:12;23.60;;;15.10;;
18411;SDS011;27097;51.738;19.472;2023-02-15T10:27:55;28.08;;;14.55;;
18411;SDS011;27097;51.738;19.472;2023-02-15T10:30:33;26.77;;;13.95;;
18411;SDS011;27097;51.738;19.472;2023-02-15T10:33:10;24.77;;;14.40;;
18411;SDS011;27097;51.738;19.472;2023-02-15T10:35:48;24.85;;;14.68;;
18411;SDS011;27097;51.738;19.472;2023-02-15T10:38:23;29.85;;;15.82;;
18411;SDS011;27097;51.738;19.472;2023-02-15T10:41:02;26.92;;;15.20;;
18411;SDS011;27097;51.738;19.472;2023-02-15T10:43:41;26.85;;;15.95;;
18411;SDS011;27097;51.738;19.472;2023-02-15T10:46:30;25.48;;;15.10;;
18411;SDS011;27097;51.738;19.472;2023-02-15T10:49:26;28.50;;;16.23;;
18411;SDS011;27097;51.738;19.472;2023-02-15T10:52:10;22.58;;;15.50;;
18411;SDS011;27097;51.738;19.472;2023-02-15T10:54:48;30.50;;;15.60;;
18411;SDS011;27097;51.738;19.472;2023-02-15T10:57:19;27.88;;;16.42;;
18411;SDS011;27097;51.738;19.472;2023-02-15T10:59:58;26.27;;;15.98;;
18411;SDS011;27097;51.738;19.472;2023-02-15T11:02:40;29.00;;;16.77;;
18411;SDS011;27097;51.738;19.472;2023-02-15T11:05:20;30.67;;;16.25;;
18411;SDS011;27097;51.738;19.472;2023-02-15T11:07:56;26.20;;;15.82;;
18411;SDS011;27097;51.738;19.472;2023-02-15T11:10:27;25.23;;;16.33;;
18411;SDS011;27097;51.738;19.472;2023-02-15T11:12:58;28.23;;;16.63;;
18411;SDS011;27097;51.738;19.472;2023-02-15T11:15:32;29.52;;;16.58;;
18411;SDS011;27097;51.738;19.472;2023-02-15T11:18:04;30.42;;;15.90;;
18411;SDS011;27097;51.738;19.472;2023-02-15T11:20:36;25.65;;;15.82;;
18411;SDS011;27097;51.738;19.472;2023-02-15T11:23:09;32.80;;;15.85;;
18411;SDS011;27097;51.738;19.472;2023-02-15T11:25:41;28.67;;;16.67;;
18411;SDS011;27097;51.738;19.472;2023-02-15T11:28:11;30.17;;;16.48;;
18411;SDS011;27097;51.738;19.472;2023-02-15T11:30:46;26.63;;;16.40;;
18411;SDS011;27097;51.738;19.472;2023-02-15T11:33:19;29.30;;;16.75;;
18411;SDS011;27097;51.738;19.472;2023-02-15T11:35:50;29.00;;;16.52;;
18411;SDS011;27097;51.738;19.472;2023-02-15T11:38:22;28.55;;;16.20;;
18411;SDS011;27097;51.738;19.472;2023-02-15T11:40:54;29.77;;;17.48;;
18411;SDS011;27097;51.738;19.472;2023-02-15T11:43:26;28.40;;;17.05;;
18411;SDS011;27097;51.738;19.472;2023-02-15T11:45:57;30.92;;;17.13;;
18411;SDS011;27097;51.738;19.472;2023-02-15T11:48:25;31.70;;;18.10;;
18411;SDS011;27097;51.738;19.472;2023-02-15T11:50:55;27.83;;;16.63;;
18411;SDS011;27097;51.738;19.472;2023-02-15T11:53:23;26.73;;;17.52;;
18411;SDS011;27097;51.738;19.472;2023-02-15T11:55:52;27.77;;;17.58;;
18411;SDS011;27097;51.738;19.472;2023-02-15T11:58:23;28.42;;;18.40;;
18411;SDS011;27097;51.738;19.472;2023-02-15T12:00:56;30.55;;;18.10;;
18411;SDS011;27097;51.738;19.472;2023-02-15T12:03:29;28.25;;;18.33;;
18411;SDS011;27097;51.738;19.472;2023-02-15T12:06:11;33.83;;;18.60;;
18411;SDS011;27097;51.738;19.472;2023-02-15T12:08:44;27.70;;;17.33;;
18411;SDS011;27097;51.738;19.472;2023-02-15T12:11:17;31.45;;;18.30;;
18411;SDS011;27097;51.738;19.472;2023-02-15T12:13:55;29.33;;;17.30;;
18411;SDS011;27097;51.738;19.472;2023-02-15T12:16:24;30.15;;;17.67;;
18411;SDS011;27097;51.738;19.472;2023-02-15T12:18:55;33.42;;;18.38;;
18411;SDS011;27097;51.738;19.472;2023-02-15T12:21:24;28.15;;;17.00;;
18411;SDS011;27097;51.738;19.472;2023-02-15T12:23:53;31.02;;;18.02;;
18411;SDS011;27097;51.738;19.472;2023-02-15T12:26:27;26.55;;;17.45;;
18411;SDS011;27097;51.738;19.472;2023-02-15T12:28:55;26.63;;;17.35;;
18411;SDS011;27097;51.738;19.472;2023-02-15T12:31:27;28.70;;;18.92;;
18411;SDS011;27097;51.738;19.472;2023-02-15T12:33:59;27.85;;;18.10;;
18411;SDS011;27097;51.738;19.472;2023-02-15T12:36:29;30.05;;;17.23;;
18411;SDS011;27097;51.738;19.472;2023-02-15T12:39:04;27.92;;;17.92;;
18411;SDS011;27097;51.738;19.472;2023-02-15T12:41:43;28.00;;;17.63;;
18411;SDS011;27097;51.738;19.472;2023-02-15T12:44:16;26.75;;;17.38;;
18411;SDS011;27097;51.738;19.472;2023-02-15T12:46:53;31.00;;;19.02;;
18411;SDS011;27097;51.738;19.472;2023-02-15T12:49:24;30.80;;;18.30;;
18411;SDS011;27097;51.738;19.472;2023-02-15T12:51:53;27.05;;;17.75;;
18411;SDS011;27097;51.738;19.472;2023-02-15T12:54:31;30.52;;;18.25;;
18411;SDS011;27097;51.738;19.472;2023-02-15T12:57:12;33.03;;;18.92;;
18411;SDS011;27097;51.738;19.472;2023-02-15T12:59:55;31.50;;;19.30;;
18411;SDS011;27097;51.738;19.472;2023-02-15T13:02:24;38.15;;;19.13;;
18411;SDS011;27097;51.738;19.472;2023-02-15T13:04:56;31.85;;;18.40;;
18411;SDS011;27097;51.738;19.472;2023-02-15T13:07:30;30.88;;;19.15;;
18411;SDS011;27097;51.738;19.472;2023-02-15T13:09:58;35.85;;;19.60;;
18411;SDS011;27097;51.738;19.472;2023-02-15T13:12:25;33.13;;;18.73;;
18411;SDS011;27097;51.738;19.472;2023-02-15T13:14:55;35.03;;;18.48;;
18411;SDS011;27097;51.738;19.472;2023-02-15T13:17:25;35.72;;;18.25;;
18411;SDS011;27097;51.738;19.472;2023-02-15T13:19:57;38.50;;;19.35;;
18411;SDS011;27097;51.738;19.472;2023-02-15T13:22:27;35.65;;;19.13;;
18411;SDS011;27097;51.738;19.472;2023-02-15T13:25:02;36.70;;;19.90;;
18411;SDS011;27097;51.738;19.472;2023-02-15T13:27:34;37.95;;;19.45;;
18411;SDS011;27097;51.738;19.472;2023-02-15T13:30:03;35.20;;;19.55;;
18411;SDS011;27097;51.738;19.472;2023-02-15T13:32:51;33.78;;;19.90;;
18411;SDS011;27097;51.738;19.472;2023-02-15T13:35:23;35.47;;;19.15;;
18411;SDS011;27097;51.738;19.472;2023-02-15T13:37:58;32.65;;;19.33;;
18411;SDS011;27097;51.738;19.472;2023-02-15T13:40:34;33.47;;;19.02;;
18411;SDS011;27097;51.738;19.472;2023-02-15T13:43:12;37.80;;;20.30;;
18411;SDS011;27097;51.738;19.472;2023-02-15T13:45:51;36.38;;;18.88;;
18411;SDS011;27097;51.738;19.472;2023-02-15T13:48:36;31.85;;;19.30;;
18411;SDS011;27097;51.738;19.472;2023-02-15T13:51:12;35.75;;;18.77;;
18411;SDS011;27097;51.738;19.472;2023-02-15T13:56:53;34.55;;;19.80;;
18411;SDS011;27097;51.738;19.472;2023-02-15T13:59:31;30.65;;;19.98;;
18411;SDS011;27097;51.738;19.472;2023-02-15T14:05:15;31.45;;;18.95;;
18411;SDS011;27097;51.738;19.472;2023-02-15T14:07:59;31.15;;;19.02;;
18411;SDS011;27097;51.738;19.472;2023-02-15T14:10:38;32.10;;;19.13;;
18411;SDS011;27097;51.738;19.472;2023-02-15T14:13:42;33.67;;;18.98;;
18411;SDS011;27097;51.738;19.472;2023-02-15T14:16:20;31.90;;;18.67;;
18411;SDS011;27097;51.738;19.472;2023-02-15T14:18:59;35.55;;;18.90;;
18411;SDS011;27097;51.738;19.472;2023-02-15T14:21:34;33.47;;;19.17;;
18411;SDS011;27097;51.738;19.472;2023-02-15T14:24:13;33.58;;;19.08;;
18411;SDS011;27097;51.738;19.472;2023-02-15T14:26:49;34.72;;;18.23;;
18411;SDS011;27097;51.738;19.472;2023-02-15T14:29:24;34.88;;;18.75;;
18411;SDS011;27097;51.738;19.472;2023-02-15T14:31:59;32.38;;;16.98;;
18411;SDS011;27097;51.738;19.472;2023-02-15T14:34:30;39.22;;;19.10;;
18411;SDS011;27097;51.738;19.472;2023-02-15T14:37:08;42.00;;;19.08;;
18411;SDS011;27097;51.738;19.472;2023-02-15T14:39:41;34.15;;;17.60;;
18411;SDS011;27097;51.738;19.472;2023-02-15T14:42:34;38.75;;;17.50;;
18411;SDS011;27097;51.738;19.472;2023-02-15T14:45:06;32.35;;;17.88;;
18411;SDS011;27097;51.738;19.472;2023-02-15T14:47:44;38.50;;;18.80;;
18411;SDS011;27097;51.738;19.472;2023-02-15T14:50:38;36.67;;;17.40;;